メインページ
METAR-TAF:

METAR-TAF

空港 :

ブラジリア, ブラジリア連邦直轄区, ブラジル

プレジデント・ジュセリノ・クビシェッキ国際空港

緯度: 15-52S, 経度: 047-56W, 海抜: 1061m

現時点の気象観測

当レポートは37分前の21:00(UTC)に作成
南/南東の風 6kt
気温 24°C
湿度 65%
気圧 1018 hPa
視程10km以上
高度4000ftの雲は散在している, 塔状積雲.
近辺でにわか雨

METAR: SBBR 232100Z 16006KT 9999 VCSH SCT040TCU 24/17 Q1018

時間: 18:37 (21:37 UTC)

予報

当レポートは5時間37分前の16:00(UTC)に作成
予報は23日の 18時(UTC)から 24日の 18時(UTC)まで有効
西/南西の風 7kt
視程10km以上
高度4000ftの雲は散在している
高度4500ftの雲はほとんどない, 塔状積雲.
24日の 00時(UTC)から 24日の 02時(UTC)まで徐々に
の風 3kt
視程: 8000m
確率 40%
24日の 06時(UTC)から 24日の 07時(UTC)まで
高度1000ftの千切れ雲あり
24日の 10時(UTC)から 24日の 12時(UTC)まで徐々に
西/北西の風 7kt

TAF: SBBR 231600Z 2318/2418 25007KT 9999 SCT040 FEW045TCU TX29/2318Z T N17/2408Z BECMG 2400/2402 18003KT 8000 NSC PROB40 2406/2407 BKN010 BECMG 2410/2412 30007KT RMK PDB

4,000以上の空港の気象観測と天気予報(METAR報とTAF報)

利用可能な観測所は地図上に黄色い丸と赤い丸で示す。

丸の上にカーソルを重ねると観測所名を参照できる。

次にクリックすると気象観測と天気予報を参照できる。

マップの切り替え:黒色「×」印の緑ボタンをクリックして拡大、「-」印の緑ボタンをクリックして縮小、緑色の三角印をクリックして隣りの地図に切り替え


METAR-TAF: